createdAt,value
2023-03-20T00:02:28.229Z,12.18
2023-03-20T00:04:57.745Z,12.75
2023-03-20T00:07:27.624Z,12.93
2023-03-20T00:09:58.107Z,13.65
2023-03-20T00:12:27.560Z,13.70
2023-03-20T00:14:56.943Z,12.73
2023-03-20T00:17:26.316Z,12.37
2023-03-20T00:19:55.724Z,13.93
2023-03-20T00:22:25.088Z,13.22
2023-03-20T00:24:54.507Z,13.28
2023-03-20T00:27:23.741Z,13.75
2023-03-20T00:29:52.997Z,13.55
2023-03-20T00:32:22.454Z,14.95
2023-03-20T00:34:51.685Z,14.93
2023-03-20T00:37:21.237Z,15.23
2023-03-20T00:39:51.331Z,14.38
2023-03-20T00:42:22.429Z,16.52
2023-03-20T00:44:54.381Z,15.80
2023-03-20T00:47:26.949Z,16.05
2023-03-20T00:49:56.667Z,15.88
2023-03-20T00:52:26.246Z,15.93
2023-03-20T00:54:55.775Z,15.78
2023-03-20T00:57:34.291Z,16.65
2023-03-20T01:00:09.728Z,16.00
2023-03-20T01:02:39.147Z,17.37
2023-03-20T01:05:08.992Z,17.57
2023-03-20T01:07:38.361Z,16.45
2023-03-20T01:10:08.199Z,17.15
2023-03-20T01:12:37.697Z,16.80
2023-03-20T01:15:17.742Z,16.95
2023-03-20T01:17:47.604Z,16.15
2023-03-20T01:20:20.205Z,16.67
2023-03-20T01:22:49.717Z,17.85
2023-03-20T01:25:19.339Z,17.50
2023-03-20T01:27:54.097Z,15.50
2023-03-20T01:30:28.647Z,16.27
2023-03-20T01:32:58.983Z,16.20
2023-03-20T01:35:29.510Z,15.93
2023-03-20T01:38:00.923Z,16.70
2023-03-20T01:40:36.500Z,14.53
2023-03-20T01:43:15.885Z,15.72
2023-03-20T01:45:54.785Z,15.15
2023-03-20T01:48:28.252Z,14.28
2023-03-20T01:53:28.866Z,13.48
2023-03-20T01:56:01.804Z,14.18
2023-03-20T01:58:39.089Z,13.85
2023-03-20T02:01:09.918Z,14.58
2023-03-20T02:03:40.418Z,15.35
2023-03-20T02:06:14.038Z,15.08
2023-03-20T02:09:01.733Z,16.25
2023-03-20T02:11:33.116Z,16.50
2023-03-20T02:14:03.178Z,15.65
2023-03-20T02:16:34.125Z,16.50
2023-03-20T02:19:39.038Z,16.25
2023-03-20T02:22:11.483Z,17.37
2023-03-20T02:24:56.107Z,19.48
2023-03-20T02:27:41.134Z,18.70
2023-03-20T02:30:35.785Z,19.12
2023-03-20T02:33:43.469Z,20.40
2023-03-20T02:36:41.258Z,20.40
2023-03-20T02:39:35.716Z,20.15
2023-03-20T02:42:17.839Z,20.23
2023-03-20T02:44:51.072Z,21.07
2023-03-20T02:47:26.711Z,21.23
2023-03-20T02:50:05.790Z,20.95
2023-03-20T02:52:43.788Z,19.95
2023-03-20T02:55:29.449Z,21.20
2023-03-20T02:58:05.552Z,21.37
2023-03-20T03:00:51.861Z,20.90
2023-03-20T03:03:42.714Z,19.90
2023-03-20T03:06:15.127Z,20.20
2023-03-20T03:08:47.907Z,20.65
2023-03-20T03:11:17.620Z,19.70
2023-03-20T03:13:50.163Z,19.35
2023-03-20T03:16:22.842Z,19.35
2023-03-20T03:18:59.703Z,18.65
2023-03-20T03:21:30.748Z,18.12
2023-03-20T03:24:00.273Z,17.98
2023-03-20T03:26:35.654Z,17.55
2023-03-20T03:29:17.087Z,17.90
2023-03-20T03:31:47.176Z,17.62
2023-03-20T03:34:18.880Z,17.57
2023-03-20T03:37:08.035Z,17.77
2023-03-20T03:40:04.637Z,17.10
2023-03-20T03:42:42.718Z,17.32
2023-03-20T03:45:15.020Z,17.15
2023-03-20T03:47:55.270Z,17.45
2023-03-20T03:50:44.181Z,17.17
2023-03-20T03:53:15.039Z,17.42
2023-03-20T03:55:47.939Z,17.60
2023-03-20T03:58:25.789Z,17.82
2023-03-20T04:00:56.827Z,17.77
2023-03-20T04:03:29.231Z,17.50
2023-03-20T04:08:28.522Z,18.20
2023-03-20T04:10:57.898Z,17.90
2023-03-20T04:13:27.359Z,18.37
2023-03-20T04:15:57.542Z,17.87
2023-03-20T04:18:28.819Z,19.52
2023-03-20T04:20:58.081Z,18.60
2023-03-20T04:23:27.621Z,19.35
2023-03-20T04:25:57.145Z,17.98
2023-03-20T04:28:27.129Z,18.00
2023-03-20T04:31:00.001Z,18.02
2023-03-20T04:33:37.852Z,17.17
2023-03-20T04:36:25.110Z,17.45
2023-03-20T04:38:57.649Z,17.57
2023-03-20T04:41:27.606Z,18.12
2023-03-20T04:43:58.758Z,18.35
2023-03-20T04:46:28.214Z,17.52
2023-03-20T04:48:58.117Z,19.10
2023-03-20T04:51:29.107Z,19.40
2023-03-20T04:53:59.487Z,18.30
2023-03-20T04:56:28.833Z,18.85
2023-03-20T04:58:59.923Z,18.75
2023-03-20T05:01:29.869Z,19.10
2023-03-20T05:04:01.181Z,18.40
2023-03-20T05:06:33.070Z,18.57
2023-03-20T05:09:02.925Z,18.48
2023-03-20T05:11:33.836Z,18.73
2023-03-20T05:14:19.794Z,18.27
2023-03-20T05:16:54.034Z,18.92
2023-03-20T05:19:28.324Z,18.73
2023-03-20T05:22:11.835Z,18.20
2023-03-20T05:24:58.055Z,17.73
2023-03-20T05:27:31.680Z,17.90
2023-03-20T05:30:09.920Z,17.55
2023-03-20T05:32:56.565Z,17.77
2023-03-20T05:35:30.438Z,17.37
2023-03-20T05:38:07.633Z,16.87
2023-03-20T05:40:38.703Z,16.77
2023-03-20T05:43:16.133Z,16.57
2023-03-20T05:46:03.527Z,16.52
2023-03-20T05:48:37.148Z,16.30
2023-03-20T05:51:20.782Z,16.67
2023-03-20T05:53:51.789Z,16.73
2023-03-20T05:56:26.021Z,15.58
2023-03-20T05:58:57.100Z,17.00
2023-03-20T06:01:28.564Z,17.15
2023-03-20T06:03:59.560Z,15.35
2023-03-20T06:06:46.001Z,15.43
2023-03-20T06:09:15.783Z,15.93
2023-03-20T06:11:45.356Z,15.80
2023-03-20T06:14:16.763Z,15.85
2023-03-20T06:16:47.749Z,15.25
2023-03-20T06:19:17.575Z,15.40
2023-03-20T06:21:48.762Z,13.98
2023-03-20T06:24:19.834Z,14.90
2023-03-20T06:26:49.350Z,14.93
2023-03-20T06:29:18.566Z,15.03
2023-03-20T06:31:48.490Z,14.63
2023-03-20T06:34:19.477Z,14.93
2023-03-20T06:36:49.381Z,14.20
2023-03-20T06:39:20.457Z,14.18
2023-03-20T06:41:50.350Z,14.93
2023-03-20T06:44:21.925Z,15.25
2023-03-20T06:46:56.201Z,14.47
2023-03-20T06:49:25.662Z,13.50
2023-03-20T06:51:55.041Z,13.93
2023-03-20T06:54:26.628Z,13.78
2023-03-20T06:56:56.618Z,13.15
2023-03-20T06:59:27.120Z,13.25
2023-03-20T07:01:59.563Z,12.95
2023-03-20T07:04:29.432Z,12.23
2023-03-20T07:07:00.996Z,12.23
2023-03-20T07:09:30.360Z,11.38
2023-03-20T07:12:00.166Z,12.15
2023-03-20T07:14:29.529Z,11.83
2023-03-20T07:17:01.029Z,12.10
2023-03-20T07:19:31.460Z,11.68
2023-03-20T07:22:02.304Z,12.47
2023-03-20T07:24:35.668Z,11.53
2023-03-20T07:27:05.250Z,11.70
2023-03-20T07:29:38.087Z,12.35
2023-03-20T07:32:11.522Z,11.90
2023-03-20T07:34:44.242Z,11.22
2023-03-20T07:37:13.931Z,11.88
2023-03-20T07:39:45.686Z,11.93
2023-03-20T07:42:17.983Z,11.55
2023-03-20T07:44:49.201Z,10.98
2023-03-20T07:47:19.646Z,11.90
2023-03-20T07:49:50.838Z,10.32
2023-03-20T07:52:20.093Z,10.60
2023-03-20T07:54:49.363Z,10.23
2023-03-20T07:57:19.558Z,10.20
2023-03-20T07:59:52.556Z,9.85
2023-03-20T08:02:22.332Z,9.75
2023-03-20T08:04:51.836Z,9.38
2023-03-20T08:07:21.434Z,10.00
2023-03-20T08:09:58.859Z,10.25
2023-03-20T08:12:42.556Z,10.78
2023-03-20T08:15:27.258Z,10.08
2023-03-20T08:18:24.302Z,10.28
2023-03-20T08:21:03.434Z,9.73
2023-03-20T08:23:34.481Z,10.03
2023-03-20T08:26:04.285Z,9.93
2023-03-20T08:28:46.653Z,10.30
2023-03-20T08:31:10.055Z,10.45
2023-03-20T08:33:39.368Z,11.55
2023-03-20T08:36:09.101Z,10.95
2023-03-20T08:38:38.601Z,11.00
2023-03-20T08:41:08.581Z,11.08
2023-03-20T08:43:38.434Z,10.72
2023-03-20T08:46:08.169Z,11.80
2023-03-20T08:48:37.448Z,11.45
2023-03-20T08:51:07.737Z,11.25
2023-03-20T08:53:37.284Z,11.48
2023-03-20T08:56:07.184Z,11.45
2023-03-20T08:58:36.422Z,11.75
2023-03-20T09:01:09.864Z,12.18
2023-03-20T09:03:39.383Z,12.10
2023-03-20T09:06:09.821Z,12.07
2023-03-20T09:08:40.385Z,12.10
2023-03-20T09:11:09.585Z,12.25
2023-03-20T09:13:39.121Z,12.58
2023-03-20T09:16:09.062Z,13.13
2023-03-20T09:18:38.382Z,12.50
2023-03-20T09:21:08.350Z,12.93
2023-03-20T09:23:37.786Z,12.80
2023-03-20T09:26:07.514Z,13.45
2023-03-20T09:28:37.061Z,12.82
2023-03-20T09:31:06.685Z,12.43
2023-03-20T09:33:36.129Z,12.93
2023-03-20T09:36:08.068Z,13.40
2023-03-20T09:38:37.281Z,12.80
2023-03-20T09:41:07.476Z,13.53
2023-03-20T09:43:39.875Z,13.50
2023-03-20T09:46:30.984Z,13.32
2023-03-20T09:49:03.558Z,13.03
2023-03-20T09:54:12.582Z,11.97
2023-03-20T09:56:42.582Z,12.23
2023-03-20T09:59:14.378Z,12.00
2023-03-20T10:01:55.688Z,12.33
2023-03-20T10:04:29.202Z,12.03
2023-03-20T10:07:02.477Z,11.28
2023-03-20T10:09:34.941Z,11.60
2023-03-20T10:15:10.584Z,11.20
2023-03-20T10:17:54.517Z,11.22
2023-03-20T10:20:44.930Z,11.18
2023-03-20T10:23:27.434Z,11.53
2023-03-20T10:25:59.930Z,10.95
2023-03-20T10:31:23.780Z,10.70
2023-03-20T10:34:07.836Z,12.47
2023-03-20T10:36:49.937Z,11.57
2023-03-20T10:39:22.751Z,11.55
2023-03-20T10:41:57.232Z,12.35
2023-03-20T10:44:40.199Z,11.55
2023-03-20T10:47:11.441Z,11.48
2023-03-20T10:49:59.436Z,11.18
2023-03-20T10:52:33.920Z,11.05
2023-03-20T10:55:15.682Z,12.25
2023-03-20T10:57:48.305Z,10.25
2023-03-20T11:02:49.957Z,10.65
2023-03-20T11:05:32.648Z,10.75
2023-03-20T11:08:10.693Z,9.63
2023-03-20T11:10:41.859Z,10.10
2023-03-20T11:13:18.699Z,10.05
2023-03-20T11:15:48.013Z,9.58
2023-03-20T11:18:17.877Z,9.90
2023-03-20T11:20:58.428Z,9.45
2023-03-20T11:23:35.766Z,9.35
2023-03-20T11:26:11.323Z,9.10
2023-03-20T11:28:54.157Z,8.90
2023-03-20T11:31:40.870Z,8.53
2023-03-20T11:34:19.079Z,8.43
2023-03-20T11:37:09.834Z,9.20
2023-03-20T11:39:37.011Z,8.30
2023-03-20T11:42:11.406Z,9.25
2023-03-20T11:44:41.909Z,8.93
2023-03-20T11:47:16.238Z,9.95
2023-03-20T11:49:51.835Z,9.50
2023-03-20T11:52:36.655Z,10.25
2023-03-20T11:55:11.686Z,9.25
2023-03-20T11:57:47.211Z,9.10
2023-03-20T12:00:21.781Z,9.90
2023-03-20T12:02:51.585Z,9.78
2023-03-20T12:05:26.613Z,9.90
2023-03-20T12:07:58.268Z,9.63
2023-03-20T12:10:30.340Z,9.73
2023-03-20T12:13:02.766Z,10.00
2023-03-20T12:15:37.120Z,9.35
2023-03-20T12:18:24.809Z,10.10
2023-03-20T12:21:12.498Z,9.80
2023-03-20T12:23:45.317Z,9.35
2023-03-20T12:26:38.739Z,9.80
2023-03-20T12:29:43.802Z,9.68
2023-03-20T12:32:31.392Z,9.53
2023-03-20T12:35:19.727Z,9.60
2023-03-20T12:37:49.326Z,9.88
2023-03-20T12:40:21.379Z,9.48
2023-03-20T12:43:03.174Z,9.50
2023-03-20T12:45:44.809Z,9.08
2023-03-20T12:48:22.783Z,9.58
2023-03-20T12:50:57.392Z,10.05
2023-03-20T12:53:50.658Z,9.15
2023-03-20T12:56:48.099Z,9.50
2023-03-20T12:59:37.200Z,9.38
2023-03-20T13:02:29.359Z,9.23
2023-03-20T13:05:12.516Z,9.17
2023-03-20T13:08:02.748Z,9.50
2023-03-20T13:10:36.046Z,9.05
2023-03-20T13:13:18.541Z,9.43
2023-03-20T13:15:56.628Z,9.98
2023-03-20T13:18:54.388Z,9.50
2023-03-20T13:21:37.909Z,9.68
2023-03-20T13:24:14.990Z,10.20
2023-03-20T13:26:53.650Z,10.98
2023-03-20T13:29:32.116Z,10.45
2023-03-20T13:32:22.797Z,10.98
2023-03-20T13:35:04.685Z,11.63
2023-03-20T13:37:42.006Z,11.23
2023-03-20T13:40:34.983Z,11.90
2023-03-20T13:43:26.160Z,12.50
2023-03-20T13:46:08.976Z,12.53
2023-03-20T13:51:17.291Z,13.43
2023-03-20T13:54:11.101Z,12.65
2023-03-20T13:56:49.561Z,13.60
2023-03-20T13:59:42.933Z,14.47
2023-03-20T14:02:38.445Z,13.20
2023-03-20T14:05:16.987Z,14.40
2023-03-20T14:07:48.621Z,14.03
2023-03-20T14:10:30.453Z,15.07
2023-03-20T14:13:03.167Z,15.68
2023-03-20T14:15:39.195Z,15.00
2023-03-20T14:18:15.227Z,16.15
2023-03-20T14:20:58.347Z,16.48
2023-03-20T14:23:39.946Z,17.00
2023-03-20T14:26:17.563Z,16.48
2023-03-20T14:28:56.929Z,16.40
2023-03-20T14:31:36.318Z,16.48
2023-03-20T14:34:25.845Z,17.10
2023-03-20T14:37:03.407Z,16.37
2023-03-20T14:40:13.382Z,15.28
2023-03-20T14:43:04.855Z,15.78
2023-03-20T14:46:12.284Z,15.43
2023-03-20T14:48:43.918Z,15.00
2023-03-20T14:51:22.174Z,14.20
2023-03-20T14:53:57.054Z,14.50
2023-03-20T14:56:32.465Z,13.53
2023-03-20T14:59:06.517Z,13.72
2023-03-20T15:01:41.838Z,13.32
2023-03-20T15:04:31.485Z,13.28
2023-03-20T15:07:07.197Z,13.38
2023-03-20T15:09:40.699Z,13.00
2023-03-20T15:12:12.579Z,12.80
2023-03-20T15:14:47.814Z,13.10
2023-03-20T15:17:22.542Z,12.13
2023-03-20T15:19:52.035Z,11.88
2023-03-20T15:22:22.125Z,11.93
2023-03-20T15:24:56.073Z,12.43
2023-03-20T15:27:29.019Z,11.18
2023-03-20T15:29:59.976Z,11.22
2023-03-20T15:32:29.787Z,12.07
2023-03-20T15:34:59.406Z,12.10
2023-03-20T15:37:29.644Z,10.98
2023-03-20T15:40:00.614Z,11.80
2023-03-20T15:42:31.489Z,12.28
2023-03-20T15:45:01.734Z,11.35
2023-03-20T15:47:31.101Z,10.58
2023-03-20T15:50:02.575Z,10.65
2023-03-20T15:52:41.228Z,10.78
2023-03-20T15:55:20.105Z,10.13
2023-03-20T15:57:50.605Z,10.75
2023-03-20T16:00:36.157Z,11.00
2023-03-20T16:03:08.193Z,11.22
2023-03-20T16:05:38.079Z,11.25
2023-03-20T16:08:31.493Z,10.65
2023-03-20T16:11:07.908Z,10.90
2023-03-20T16:13:40.269Z,11.12
2023-03-20T16:16:15.446Z,11.63
2023-03-20T16:18:47.348Z,11.60
2023-03-20T16:21:25.495Z,11.68
2023-03-20T16:23:57.227Z,12.28
2023-03-20T16:26:28.029Z,10.78
2023-03-20T16:28:59.750Z,10.40
2023-03-20T16:31:32.966Z,10.27
2023-03-20T16:34:08.188Z,10.88
2023-03-20T16:36:39.058Z,10.40
2023-03-20T16:39:11.494Z,10.53
2023-03-20T16:41:41.572Z,10.63
2023-03-20T16:44:17.039Z,10.58
2023-03-20T16:47:17.622Z,11.38
2023-03-20T16:50:13.721Z,10.85
2023-03-20T16:52:49.105Z,11.45
2023-03-20T16:55:21.754Z,13.58
2023-03-20T16:57:53.436Z,12.85
2023-03-20T17:00:29.078Z,13.73
2023-03-20T17:03:13.714Z,12.43
2023-03-20T17:05:49.162Z,14.15
2023-03-20T17:08:30.582Z,12.07
2023-03-20T17:11:02.670Z,11.93
2023-03-20T17:13:31.963Z,11.63
2023-03-20T17:16:02.099Z,12.53
2023-03-20T17:18:31.914Z,11.55
2023-03-20T17:21:01.483Z,11.60
2023-03-20T17:23:32.480Z,11.43
2023-03-20T17:26:02.539Z,12.37
2023-03-20T17:28:37.249Z,15.53
2023-03-20T17:31:07.396Z,12.28
2023-03-20T17:33:36.772Z,11.38
2023-03-20T17:36:09.229Z,14.13
2023-03-20T17:38:38.725Z,14.93
2023-03-20T17:41:11.252Z,12.88
2023-03-20T17:46:28.093Z,12.53
2023-03-20T17:49:00.043Z,12.55
2023-03-20T17:51:30.180Z,13.40
2023-03-20T17:53:59.771Z,14.38
2023-03-20T17:56:30.354Z,11.60
2023-03-20T17:59:03.954Z,12.88
2023-03-20T18:01:34.089Z,13.60
2023-03-20T18:04:03.659Z,12.28
2023-03-20T18:06:34.978Z,15.75
2023-03-20T18:09:05.502Z,12.55
2023-03-20T18:11:35.052Z,15.13
2023-03-20T18:14:06.075Z,14.13
2023-03-20T18:16:36.123Z,11.60
2023-03-20T18:19:05.429Z,12.10
2023-03-20T18:21:35.036Z,12.98
2023-03-20T18:24:04.630Z,13.03
2023-03-20T18:26:34.042Z,10.98
2023-03-20T18:29:05.694Z,11.05
2023-03-20T18:31:35.043Z,11.13
2023-03-20T18:34:04.822Z,10.23
2023-03-20T18:36:34.319Z,9.75
2023-03-20T18:39:05.108Z,10.03
2023-03-20T18:41:34.971Z,9.88
2023-03-20T18:44:04.993Z,10.15
2023-03-20T18:46:34.452Z,11.53
2023-03-20T18:49:03.818Z,14.00
2023-03-20T18:51:33.117Z,12.20
2023-03-20T18:54:02.428Z,11.25
2023-03-20T18:56:33.375Z,20.65
2023-03-20T18:59:04.395Z,14.43
2023-03-20T19:01:34.844Z,13.78
2023-03-20T19:04:04.588Z,12.60
2023-03-20T19:06:34.539Z,12.50
2023-03-20T19:09:05.571Z,13.30
2023-03-20T19:11:35.012Z,13.95
2023-03-20T19:14:04.290Z,14.73
2023-03-20T19:16:35.939Z,15.08
2023-03-20T19:19:07.619Z,17.85
2023-03-20T19:21:36.979Z,18.97
2023-03-20T19:24:07.602Z,16.85
2023-03-20T19:26:38.147Z,17.27
2023-03-20T19:29:09.819Z,17.67
2023-03-20T19:31:39.408Z,19.12
2023-03-20T19:34:24.651Z,26.68
2023-03-20T19:36:40.108Z,22.25
2023-03-20T19:39:11.910Z,27.37
2023-03-20T19:41:41.664Z,24.15
2023-03-20T19:44:11.131Z,29.20
2023-03-20T19:46:41.973Z,27.00
2023-03-20T19:49:19.764Z,27.22
2023-03-20T19:51:50.206Z,21.68
2023-03-20T19:54:19.513Z,23.52
2023-03-20T19:56:48.924Z,21.95
2023-03-20T19:59:18.388Z,23.45
2023-03-20T20:01:47.800Z,23.40
2023-03-20T20:04:17.336Z,21.50
2023-03-20T20:06:47.550Z,22.25
2023-03-20T20:09:18.372Z,23.55
2023-03-20T20:11:47.769Z,25.15
2023-03-20T20:14:17.047Z,23.70
2023-03-20T20:16:47.294Z,23.55
2023-03-20T20:19:16.591Z,26.70
2023-03-20T20:24:17.340Z,28.70
2023-03-20T20:26:54.975Z,22.93
2023-03-20T20:29:20.870Z,21.23
2023-03-20T20:31:50.719Z,22.62
2023-03-20T20:37:40.700Z,22.90
2023-03-20T20:39:22.357Z,20.85
2023-03-20T20:41:51.993Z,22.55
2023-03-20T20:44:21.294Z,21.97
2023-03-20T20:46:51.915Z,24.90
2023-03-20T20:49:21.243Z,22.35
2023-03-20T20:51:51.050Z,22.93
2023-03-20T20:54:20.264Z,23.80
2023-03-20T20:56:49.654Z,25.17
2023-03-20T20:59:19.991Z,23.62
2023-03-20T21:01:50.647Z,26.55
2023-03-20T21:04:20.472Z,24.23
2023-03-20T21:07:08.652Z,29.25
2023-03-20T21:09:21.305Z,32.60
2023-03-20T21:11:50.579Z,27.93
2023-03-20T21:14:20.245Z,23.90
2023-03-20T21:16:50.009Z,24.95
2023-03-20T21:19:19.476Z,23.60
2023-03-20T21:21:48.736Z,23.07
2023-03-20T21:24:31.432Z,23.47
2023-03-20T21:26:51.139Z,23.75
2023-03-20T21:29:20.622Z,23.65
2023-03-20T21:31:49.999Z,24.63
2023-03-20T21:34:19.320Z,23.90
2023-03-20T21:36:49.475Z,24.07
2023-03-20T21:39:19.773Z,24.60
2023-03-20T21:41:49.149Z,24.25
2023-03-20T21:44:59.440Z,24.23
2023-03-20T21:47:44.505Z,23.25
2023-03-20T21:50:19.347Z,22.37
2023-03-20T21:55:06.063Z,21.33
2023-03-20T21:57:55.112Z,22.40
2023-03-20T22:00:44.011Z,21.23
2023-03-20T22:02:35.001Z,21.42
2023-03-20T22:05:58.700Z,21.75
2023-03-20T22:16:43.245Z,21.23
2023-03-20T22:19:17.827Z,23.38
2023-03-20T22:24:31.162Z,22.35
2023-03-20T22:27:08.531Z,23.00
2023-03-20T22:29:39.507Z,21.10
2023-03-20T22:46:46.648Z,21.82
2023-03-20T22:49:18.207Z,22.60
2023-03-20T22:52:11.233Z,21.97
2023-03-20T22:54:22.724Z,22.75
2023-03-20T22:56:52.834Z,22.70
2023-03-20T22:59:22.073Z,22.25
2023-03-20T23:01:51.592Z,23.25
2023-03-20T23:04:21.269Z,24.20
2023-03-20T23:06:50.761Z,25.77
2023-03-20T23:09:20.345Z,27.07
2023-03-20T23:11:49.621Z,28.95
2023-03-20T23:14:21.538Z,28.75
2023-03-20T23:16:51.258Z,27.70
2023-03-20T23:19:20.648Z,28.23
2023-03-20T23:21:50.035Z,28.15
2023-03-20T23:24:19.418Z,28.47
2023-03-20T23:26:48.659Z,29.48
2023-03-20T23:29:18.268Z,27.95
2023-03-20T23:31:47.603Z,29.85
2023-03-20T23:34:18.197Z,29.15
2023-03-20T23:36:48.230Z,31.17
2023-03-20T23:39:17.455Z,30.23
2023-03-20T23:42:08.019Z,28.47
2023-03-20T23:44:18.416Z,29.67
2023-03-20T23:46:48.432Z,29.57
2023-03-20T23:49:18.303Z,29.12
2023-03-20T23:51:48.140Z,30.10
2023-03-20T23:54:17.467Z,29.67
2023-03-20T23:56:46.968Z,29.12
2023-03-20T23:59:21.404Z,29.90
